sensor_id;sensor_type;location;lat;lon;timestamp;pressure;altitude;pressure_sealevel;temperature;humidity
7834;BME280;3962;42.696;23.354;2024-01-15T00:02:21;94604.63;;;-2.97;83.58
7834;BME280;3962;42.696;23.354;2024-01-15T00:04:48;94611.78;;;-3.00;84.26
7834;BME280;3962;42.696;23.354;2024-01-15T00:07:16;94599.28;;;-3.09;84.04
7834;BME280;3962;42.696;23.354;2024-01-15T00:09:43;94607.59;;;-3.18;84.25
7834;BME280;3962;42.696;23.354;2024-01-15T00:12:10;94593.38;;;-3.28;84.74
7834;BME280;3962;42.696;23.354;2024-01-15T00:14:36;94588.69;;;-3.22;85.11
7834;BME280;3962;42.696;23.354;2024-01-15T00:17:04;94593.91;;;-3.22;85.31
7834;BME280;3962;42.696;23.354;2024-01-15T00:19:30;94602.88;;;-3.12;86.02
7834;BME280;3962;42.696;23.354;2024-01-15T00:21:58;94587.94;;;-3.08;85.74
7834;BME280;3962;42.696;23.354;2024-01-15T00:24:26;94594.38;;;-3.00;85.72
7834;BME280;3962;42.696;23.354;2024-01-15T00:26:53;94602.28;;;-3.01;85.04
7834;BME280;3962;42.696;23.354;2024-01-15T00:29:21;94603.38;;;-3.05;84.76
7834;BME280;3962;42.696;23.354;2024-01-15T00:31:48;94600.53;;;-3.16;84.17
7834;BME280;3962;42.696;23.354;2024-01-15T00:34:14;94605.03;;;-3.35;84.38
7834;BME280;3962;42.696;23.354;2024-01-15T00:36:41;94592.94;;;-3.36;85.00
7834;BME280;3962;42.696;23.354;2024-01-15T00:39:08;94596.81;;;-3.28;85.72
7834;BME280;3962;42.696;23.354;2024-01-15T00:41:37;94589.94;;;-3.13;85.64
7834;BME280;3962;42.696;23.354;2024-01-15T00:44:04;94609.31;;;-3.03;85.69
7834;BME280;3962;42.696;23.354;2024-01-15T00:46:31;94595.06;;;-2.96;86.08
7834;BME280;3962;42.696;23.354;2024-01-15T00:48:58;94582.56;;;-3.05;84.94
7834;BME280;3962;42.696;23.354;2024-01-15T00:51:24;94596.56;;;-3.08;84.68
7834;BME280;3962;42.696;23.354;2024-01-15T00:53:51;94599.53;;;-3.14;84.69
7834;BME280;3962;42.696;23.354;2024-01-15T00:56:18;94583.16;;;-3.31;84.43
7834;BME280;3962;42.696;23.354;2024-01-15T00:58:46;94596.66;;;-3.40;84.62
7834;BME280;3962;42.696;23.354;2024-01-15T01:01:13;94584.72;;;-3.44;84.94
7834;BME280;3962;42.696;23.354;2024-01-15T01:03:40;94590.59;;;-3.41;85.24
7834;BME280;3962;42.696;23.354;2024-01-15T01:06:07;94587.75;;;-3.36;85.26
7834;BME280;3962;42.696;23.354;2024-01-15T01:08:33;94596.91;;;-3.29;85.68
7834;BME280;3962;42.696;23.354;2024-01-15T01:11:00;94596.31;;;-3.19;85.12
7834;BME280;3962;42.696;23.354;2024-01-15T01:13:27;94587.34;;;-3.29;84.48
7834;BME280;3962;42.696;23.354;2024-01-15T01:15:55;94588.16;;;-3.28;85.15
7834;BME280;3962;42.696;23.354;2024-01-15T01:18:22;94581.47;;;-3.32;84.62
7834;BME280;3962;42.696;23.354;2024-01-15T01:20:49;94587.50;;;-3.32;84.83
7834;BME280;3962;42.696;23.354;2024-01-15T01:23:16;94582.66;;;-3.38;84.89
7834;BME280;3962;42.696;23.354;2024-01-15T01:25:43;94586.66;;;-3.32;85.49
7834;BME280;3962;42.696;23.354;2024-01-15T01:28:10;94585.75;;;-3.31;84.95
7834;BME280;3962;42.696;23.354;2024-01-15T01:30:37;94580.03;;;-3.38;84.84
7834;BME280;3962;42.696;23.354;2024-01-15T01:33:06;94573.31;;;-3.42;84.95
7834;BME280;3962;42.696;23.354;2024-01-15T01:35:33;94566.44;;;-3.43;85.08
7834;BME280;3962;42.696;23.354;2024-01-15T01:37:59;94557.38;;;-3.51;85.32
7834;BME280;3962;42.696;23.354;2024-01-15T01:40:27;94570.22;;;-3.48;85.16
7834;BME280;3962;42.696;23.354;2024-01-15T01:42:53;94566.19;;;-3.53;85.07
7834;BME280;3962;42.696;23.354;2024-01-15T01:45:20;94571.59;;;-3.58;84.95
7834;BME280;3962;42.696;23.354;2024-01-15T01:47:47;94563.38;;;-3.66;84.76
7834;BME280;3962;42.696;23.354;2024-01-15T01:50:16;94567.88;;;-3.85;84.73
7834;BME280;3962;42.696;23.354;2024-01-15T01:52:43;94564.34;;;-3.99;84.94
7834;BME280;3962;42.696;23.354;2024-01-15T01:55:11;94559.75;;;-4.11;84.98
7834;BME280;3962;42.696;23.354;2024-01-15T01:57:39;94558.25;;;-4.15;85.08
7834;BME280;3962;42.696;23.354;2024-01-15T02:00:08;94562.31;;;-4.27;85.11
7834;BME280;3962;42.696;23.354;2024-01-15T02:02:35;94558.41;;;-4.35;85.54
7834;BME280;3962;42.696;23.354;2024-01-15T02:05:04;94559.50;;;-4.39;86.22
7834;BME280;3962;42.696;23.354;2024-01-15T02:07:34;94549.13;;;-4.39;86.86
7834;BME280;3962;42.696;23.354;2024-01-15T02:10:01;94551.47;;;-4.35;86.84
7834;BME280;3962;42.696;23.354;2024-01-15T02:12:29;94546.72;;;-4.27;86.95
7834;BME280;3962;42.696;23.354;2024-01-15T02:14:55;94539.53;;;-4.22;86.76
7834;BME280;3962;42.696;23.354;2024-01-15T02:17:22;94545.81;;;-4.26;86.58
7834;BME280;3962;42.696;23.354;2024-01-15T02:19:49;94530.03;;;-4.38;86.52
7834;BME280;3962;42.696;23.354;2024-01-15T02:22:16;94531.63;;;-4.36;87.08
7834;BME280;3962;42.696;23.354;2024-01-15T02:24:44;94519.91;;;-4.27;87.52
7834;BME280;3962;42.696;23.354;2024-01-15T02:27:11;94519.88;;;-4.10;87.33
7834;BME280;3962;42.696;23.354;2024-01-15T02:29:38;94496.31;;;-4.23;86.71
7834;BME280;3962;42.696;23.354;2024-01-15T02:32:06;94485.56;;;-4.32;86.23
7834;BME280;3962;42.696;23.354;2024-01-15T02:34:33;94478.91;;;-4.38;87.03
7834;BME280;3962;42.696;23.354;2024-01-15T02:37:00;94480.75;;;-4.40;86.88
7834;BME280;3962;42.696;23.354;2024-01-15T02:39:27;94488.28;;;-4.51;86.97
7834;BME280;3962;42.696;23.354;2024-01-15T02:41:55;94493.78;;;-4.57;87.07
7834;BME280;3962;42.696;23.354;2024-01-15T02:44:23;94493.03;;;-4.59;87.03
7834;BME280;3962;42.696;23.354;2024-01-15T02:46:50;94483.38;;;-4.57;87.26
7834;BME280;3962;42.696;23.354;2024-01-15T02:49:16;94477.22;;;-4.54;87.42
7834;BME280;3962;42.696;23.354;2024-01-15T02:51:43;94486.81;;;-4.56;86.95
7834;BME280;3962;42.696;23.354;2024-01-15T02:54:10;94494.53;;;-4.55;87.02
7834;BME280;3962;42.696;23.354;2024-01-15T02:56:37;94488.41;;;-4.54;87.48
7834;BME280;3962;42.696;23.354;2024-01-15T02:59:05;94494.84;;;-4.44;87.31
7834;BME280;3962;42.696;23.354;2024-01-15T03:01:32;94486.13;;;-4.43;87.19
7834;BME280;3962;42.696;23.354;2024-01-15T03:03:59;94487.38;;;-4.34;87.47
7834;BME280;3962;42.696;23.354;2024-01-15T03:06:26;94488.91;;;-4.30;86.73
7834;BME280;3962;42.696;23.354;2024-01-15T03:08:52;94484.91;;;-4.20;86.80
7834;BME280;3962;42.696;23.354;2024-01-15T03:11:19;94489.81;;;-4.14;86.00
7834;BME280;3962;42.696;23.354;2024-01-15T03:13:46;94489.19;;;-4.19;85.65
7834;BME280;3962;42.696;23.354;2024-01-15T03:16:14;94471.31;;;-4.25;85.85
7834;BME280;3962;42.696;23.354;2024-01-15T03:18:41;94471.75;;;-4.17;85.72
7834;BME280;3962;42.696;23.354;2024-01-15T03:21:08;94478.28;;;-4.26;85.31
7834;BME280;3962;42.696;23.354;2024-01-15T03:23:35;94482.19;;;-4.34;84.99
7834;BME280;3962;42.696;23.354;2024-01-15T03:26:01;94472.34;;;-4.45;85.19
7834;BME280;3962;42.696;23.354;2024-01-15T03:28:28;94469.56;;;-4.40;85.27
7834;BME280;3962;42.696;23.354;2024-01-15T03:30:56;94462.09;;;-4.31;85.64
7834;BME280;3962;42.696;23.354;2024-01-15T03:33:24;94453.69;;;-4.19;85.95
7834;BME280;3962;42.696;23.354;2024-01-15T03:35:51;94461.91;;;-3.95;86.20
7834;BME280;3962;42.696;23.354;2024-01-15T03:38:17;94460.31;;;-3.98;84.78
7834;BME280;3962;42.696;23.354;2024-01-15T03:40:44;94454.44;;;-4.01;84.44
7834;BME280;3962;42.696;23.354;2024-01-15T03:43:12;94457.03;;;-4.01;84.55
7834;BME280;3962;42.696;23.354;2024-01-15T03:45:39;94458.63;;;-3.99;84.32
7834;BME280;3962;42.696;23.354;2024-01-15T03:48:06;94457.22;;;-4.04;84.21
7834;BME280;3962;42.696;23.354;2024-01-15T03:50:34;94464.09;;;-4.03;83.87
7834;BME280;3962;42.696;23.354;2024-01-15T03:53:01;94468.34;;;-4.02;84.41
7834;BME280;3962;42.696;23.354;2024-01-15T03:55:27;94467.84;;;-3.93;84.69
7834;BME280;3962;42.696;23.354;2024-01-15T03:57:54;94463.69;;;-3.80;84.58
7834;BME280;3962;42.696;23.354;2024-01-15T04:00:22;94457.50;;;-3.78;84.41
7834;BME280;3962;42.696;23.354;2024-01-15T04:02:48;94459.66;;;-3.70;84.14
7834;BME280;3962;42.696;23.354;2024-01-15T04:05:16;94449.19;;;-3.69;84.26
7834;BME280;3962;42.696;23.354;2024-01-15T04:07:44;94448.38;;;-3.69;83.91
7834;BME280;3962;42.696;23.354;2024-01-15T04:10:10;94435.44;;;-3.56;84.34
7834;BME280;3962;42.696;23.354;2024-01-15T04:12:37;94435.94;;;-3.49;83.79
7834;BME280;3962;42.696;23.354;2024-01-15T04:15:05;94436.75;;;-3.49;83.44
7834;BME280;3962;42.696;23.354;2024-01-15T04:17:32;94429.56;;;-3.59;83.39
7834;BME280;3962;42.696;23.354;2024-01-15T04:19:58;94441.22;;;-3.51;83.99
7834;BME280;3962;42.696;23.354;2024-01-15T04:22:26;94435.28;;;-3.53;83.85
7834;BME280;3962;42.696;23.354;2024-01-15T04:24:54;94434.09;;;-3.47;83.14
7834;BME280;3962;42.696;23.354;2024-01-15T04:27:21;94437.75;;;-3.36;83.98
7834;BME280;3962;42.696;23.354;2024-01-15T04:29:48;94437.03;;;-3.38;83.57
7834;BME280;3962;42.696;23.354;2024-01-15T04:32:15;94439.91;;;-3.28;83.58
7834;BME280;3962;42.696;23.354;2024-01-15T04:34:42;94439.66;;;-3.24;83.28
7834;BME280;3962;42.696;23.354;2024-01-15T04:37:08;94432.31;;;-3.31;82.66
7834;BME280;3962;42.696;23.354;2024-01-15T04:39:35;94430.53;;;-3.31;82.99
7834;BME280;3962;42.696;23.354;2024-01-15T04:42:04;94435.72;;;-3.31;82.84
7834;BME280;3962;42.696;23.354;2024-01-15T04:44:31;94433.38;;;-3.35;82.72
7834;BME280;3962;42.696;23.354;2024-01-15T04:46:58;94431.63;;;-3.35;82.77
7834;BME280;3962;42.696;23.354;2024-01-15T04:49:24;94425.28;;;-3.45;82.31
7834;BME280;3962;42.696;23.354;2024-01-15T04:51:52;94424.94;;;-3.54;82.35
7834;BME280;3962;42.696;23.354;2024-01-15T04:54:19;94427.72;;;-3.57;82.44
7834;BME280;3962;42.696;23.354;2024-01-15T04:56:46;94432.34;;;-3.62;82.86
7834;BME280;3962;42.696;23.354;2024-01-15T04:59:14;94426.88;;;-3.58;83.02
7834;BME280;3962;42.696;23.354;2024-01-15T05:01:41;94415.03;;;-3.48;83.01
7834;BME280;3962;42.696;23.354;2024-01-15T05:04:08;94413.09;;;-3.44;82.63
7834;BME280;3962;42.696;23.354;2024-01-15T05:06:35;94421.50;;;-3.55;82.77
7834;BME280;3962;42.696;23.354;2024-01-15T05:09:02;94417.47;;;-3.45;83.23
7834;BME280;3962;42.696;23.354;2024-01-15T05:11:29;94419.81;;;-3.40;83.44
7834;BME280;3962;42.696;23.354;2024-01-15T05:13:56;94412.44;;;-3.32;83.47
7834;BME280;3962;42.696;23.354;2024-01-15T05:16:24;94404.91;;;-3.23;82.98
7834;BME280;3962;42.696;23.354;2024-01-15T05:18:51;94411.38;;;-3.14;82.57
7834;BME280;3962;42.696;23.354;2024-01-15T05:21:18;94402.06;;;-3.18;82.41
7834;BME280;3962;42.696;23.354;2024-01-15T05:23:45;94400.25;;;-3.32;82.28
7834;BME280;3962;42.696;23.354;2024-01-15T05:26:12;94405.63;;;-3.35;82.48
7834;BME280;3962;42.696;23.354;2024-01-15T05:28:40;94410.25;;;-3.40;82.51
7834;BME280;3962;42.696;23.354;2024-01-15T05:31:07;94422.00;;;-3.48;83.01
7834;BME280;3962;42.696;23.354;2024-01-15T05:33:36;94407.56;;;-3.38;83.30
7834;BME280;3962;42.696;23.354;2024-01-15T05:36:04;94414.16;;;-3.33;83.52
7834;BME280;3962;42.696;23.354;2024-01-15T05:38:31;94393.97;;;-3.28;83.72
7834;BME280;3962;42.696;23.354;2024-01-15T05:40:58;94390.63;;;-3.30;83.58
7834;BME280;3962;42.696;23.354;2024-01-15T05:43:25;94389.22;;;-3.21;83.82
7834;BME280;3962;42.696;23.354;2024-01-15T05:45:52;94394.94;;;-3.15;83.51
7834;BME280;3962;42.696;23.354;2024-01-15T05:48:19;94398.16;;;-3.11;83.15
7834;BME280;3962;42.696;23.354;2024-01-15T05:50:47;94387.63;;;-3.24;83.90
7834;BME280;3962;42.696;23.354;2024-01-15T05:53:14;94381.75;;;-3.12;83.88
7834;BME280;3962;42.696;23.354;2024-01-15T05:55:41;94366.47;;;-3.18;83.44
7834;BME280;3962;42.696;23.354;2024-01-15T05:58:08;94363.41;;;-3.24;83.80
7834;BME280;3962;42.696;23.354;2024-01-15T06:00:35;94370.69;;;-3.31;83.58
7834;BME280;3962;42.696;23.354;2024-01-15T06:03:04;94377.06;;;-3.21;84.22
7834;BME280;3962;42.696;23.354;2024-01-15T06:05:31;94389.72;;;-3.15;84.27
7834;BME280;3962;42.696;23.354;2024-01-15T06:08:02;94404.81;;;-2.92;84.11
7834;BME280;3962;42.696;23.354;2024-01-15T06:10:29;94398.66;;;-2.33;84.75
7834;BME280;3962;42.696;23.354;2024-01-15T06:12:56;94393.19;;;-2.43;83.75
7834;BME280;3962;42.696;23.354;2024-01-15T06:15:23;94379.88;;;-2.52;82.85
7834;BME280;3962;42.696;23.354;2024-01-15T06:17:50;94390.00;;;-2.48;82.75
7834;BME280;3962;42.696;23.354;2024-01-15T06:20:17;94380.34;;;-2.46;82.49
7834;BME280;3962;42.696;23.354;2024-01-15T06:22:47;94380.72;;;-2.52;82.10
7834;BME280;3962;42.696;23.354;2024-01-15T06:25:15;94373.81;;;-2.53;81.90
7834;BME280;3962;42.696;23.354;2024-01-15T06:27:42;94373.81;;;-2.53;81.45
7834;BME280;3962;42.696;23.354;2024-01-15T06:30:10;94367.59;;;-2.50;82.10
7834;BME280;3962;42.696;23.354;2024-01-15T06:32:37;94377.38;;;-2.40;81.77
7834;BME280;3962;42.696;23.354;2024-01-15T06:35:05;94385.91;;;-2.38;81.82
7834;BME280;3962;42.696;23.354;2024-01-15T06:37:32;94387.31;;;-2.32;82.21
7834;BME280;3962;42.696;23.354;2024-01-15T06:39:59;94378.25;;;-2.13;81.83
7834;BME280;3962;42.696;23.354;2024-01-15T06:42:27;94385.97;;;-1.83;82.04
7834;BME280;3962;42.696;23.354;2024-01-15T06:44:54;94380.44;;;-1.65;80.18
7834;BME280;3962;42.696;23.354;2024-01-15T06:47:21;94372.69;;;-1.66;80.22
7834;BME280;3962;42.696;23.354;2024-01-15T06:49:48;94383.09;;;-1.93;80.64
7834;BME280;3962;42.696;23.354;2024-01-15T06:52:16;94393.84;;;-1.71;80.22
7834;BME280;3962;42.696;23.354;2024-01-15T06:54:42;94388.78;;;-1.60;79.98
7834;BME280;3962;42.696;23.354;2024-01-15T06:57:10;94388.00;;;-1.48;79.23
7834;BME280;3962;42.696;23.354;2024-01-15T06:59:38;94390.44;;;-1.59;79.06
7834;BME280;3962;42.696;23.354;2024-01-15T07:02:06;94397.25;;;-1.56;79.92
7834;BME280;3962;42.696;23.354;2024-01-15T07:04:33;94404.91;;;-1.53;79.27
7834;BME280;3962;42.696;23.354;2024-01-15T07:07:00;94415.69;;;-1.45;79.13
7834;BME280;3962;42.696;23.354;2024-01-15T07:09:28;94394.13;;;-1.22;79.85
7834;BME280;3962;42.696;23.354;2024-01-15T07:11:55;94394.69;;;-1.17;79.52
7834;BME280;3962;42.696;23.354;2024-01-15T07:14:24;94396.94;;;-0.99;79.59
7834;BME280;3962;42.696;23.354;2024-01-15T07:16:54;94391.34;;;-0.80;79.25
7834;BME280;3962;42.696;23.354;2024-01-15T07:19:21;94395.06;;;-0.84;78.89
7834;BME280;3962;42.696;23.354;2024-01-15T07:21:48;94393.38;;;-0.98;78.94
7834;BME280;3962;42.696;23.354;2024-01-15T07:24:16;94400.53;;;-0.75;78.95
7834;BME280;3962;42.696;23.354;2024-01-15T07:26:42;94389.78;;;-0.70;77.60
7834;BME280;3962;42.696;23.354;2024-01-15T07:29:10;94395.63;;;-0.54;77.32
7834;BME280;3962;42.696;23.354;2024-01-15T07:31:37;94397.31;;;-0.53;77.87
7834;BME280;3962;42.696;23.354;2024-01-15T07:34:05;94379.22;;;-0.69;77.72
7834;BME280;3962;42.696;23.354;2024-01-15T07:36:32;94375.88;;;-0.71;78.19
7834;BME280;3962;42.696;23.354;2024-01-15T07:38:59;94382.16;;;-0.73;78.28
7834;BME280;3962;42.696;23.354;2024-01-15T07:41:26;94378.06;;;-0.77;78.20
7834;BME280;3962;42.696;23.354;2024-01-15T07:43:53;94387.25;;;-0.72;77.79
7834;BME280;3962;42.696;23.354;2024-01-15T07:46:20;94387.25;;;-0.72;78.28
7834;BME280;3962;42.696;23.354;2024-01-15T07:48:46;94383.91;;;-0.74;78.48
7834;BME280;3962;42.696;23.354;2024-01-15T07:51:15;94401.50;;;-0.63;77.91
7834;BME280;3962;42.696;23.354;2024-01-15T07:53:42;94400.94;;;-0.68;78.11
7834;BME280;3962;42.696;23.354;2024-01-15T07:56:09;94402.19;;;-0.74;77.69
7834;BME280;3962;42.696;23.354;2024-01-15T07:58:36;94403.44;;;-0.79;77.91
7834;BME280;3962;42.696;23.354;2024-01-15T08:01:03;94386.44;;;-0.72;78.24
7834;BME280;3962;42.696;23.354;2024-01-15T08:03:30;94364.06;;;-0.64;77.70
7834;BME280;3962;42.696;23.354;2024-01-15T08:05:58;94353.94;;;-0.68;77.42
7834;BME280;3962;42.696;23.354;2024-01-15T08:08:27;94352.47;;;-0.97;78.69
7834;BME280;3962;42.696;23.354;2024-01-15T08:10:54;94379.28;;;-1.08;78.50
7834;BME280;3962;42.696;23.354;2024-01-15T08:13:21;94391.94;;;-1.02;79.46
7834;BME280;3962;42.696;23.354;2024-01-15T08:15:48;94392.34;;;-0.95;79.21
7834;BME280;3962;42.696;23.354;2024-01-15T08:18:15;94388.88;;;-0.96;78.76
7834;BME280;3962;42.696;23.354;2024-01-15T08:20:43;94384.63;;;-0.84;78.94
7834;BME280;3962;42.696;23.354;2024-01-15T08:23:10;94373.78;;;-0.66;78.47
7834;BME280;3962;42.696;23.354;2024-01-15T08:25:42;94398.56;;;-0.59;77.58
7834;BME280;3962;42.696;23.354;2024-01-15T08:28:13;94410.06;;;-0.36;78.19
7834;BME280;3962;42.696;23.354;2024-01-15T08:30:40;94390.06;;;0.48;77.45
7834;BME280;3962;42.696;23.354;2024-01-15T08:33:07;94384.09;;;1.17;74.15
7834;BME280;3962;42.696;23.354;2024-01-15T08:35:35;94373.44;;;1.87;72.47
7834;BME280;3962;42.696;23.354;2024-01-15T08:38:04;94374.22;;;3.07;67.61
7834;BME280;3962;42.696;23.354;2024-01-15T08:40:32;94358.66;;;3.97;65.71
7834;BME280;3962;42.696;23.354;2024-01-15T08:43:00;94358.72;;;4.85;61.81
7834;BME280;3962;42.696;23.354;2024-01-15T08:45:28;94361.81;;;5.09;59.60
7834;BME280;3962;42.696;23.354;2024-01-15T08:47:55;94358.72;;;4.85;59.00
7834;BME280;3962;42.696;23.354;2024-01-15T08:50:22;94344.31;;;3.80;60.07
7834;BME280;3962;42.696;23.354;2024-01-15T08:52:49;94355.75;;;3.29;63.05
7834;BME280;3962;42.696;23.354;2024-01-15T08:55:17;94359.03;;;3.83;62.67
7834;BME280;3962;42.696;23.354;2024-01-15T08:57:44;94358.78;;;4.46;60.60
7834;BME280;3962;42.696;23.354;2024-01-15T09:00:13;94345.56;;;4.95;59.17
7834;BME280;3962;42.696;23.354;2024-01-15T09:02:41;94333.25;;;5.43;57.81
7834;BME280;3962;42.696;23.354;2024-01-15T09:05:08;94315.63;;;5.34;56.41
7834;BME280;3962;42.696;23.354;2024-01-15T09:07:35;94317.34;;;4.67;58.37
7834;BME280;3962;42.696;23.354;2024-01-15T09:10:03;94328.72;;;4.18;59.89
7834;BME280;3962;42.696;23.354;2024-01-15T09:12:34;94317.94;;;3.91;60.40
7834;BME280;3962;42.696;23.354;2024-01-15T09:15:02;94302.50;;;4.47;60.15
7834;BME280;3962;42.696;23.354;2024-01-15T09:17:32;94286.78;;;4.36;58.95
7834;BME280;3962;42.696;23.354;2024-01-15T09:19:59;94265.63;;;4.66;58.28
7834;BME280;3962;42.696;23.354;2024-01-15T09:22:29;94267.94;;;4.40;58.03
7834;BME280;3962;42.696;23.354;2024-01-15T09:24:56;94277.28;;;4.63;58.87
7834;BME280;3962;42.696;23.354;2024-01-15T09:27:26;94278.72;;;4.28;59.45
7834;BME280;3962;42.696;23.354;2024-01-15T09:29:53;94275.97;;;3.60;60.61
7834;BME280;3962;42.696;23.354;2024-01-15T09:32:20;94271.16;;;3.24;61.80
7834;BME280;3962;42.696;23.354;2024-01-15T09:34:49;94276.19;;;2.75;63.68
7834;BME280;3962;42.696;23.354;2024-01-15T09:37:16;94269.81;;;2.57;64.45
7834;BME280;3962;42.696;23.354;2024-01-15T09:39:47;94260.34;;;2.34;65.77
7834;BME280;3962;42.696;23.354;2024-01-15T09:42:16;94253.31;;;2.24;66.45
7834;BME280;3962;42.696;23.354;2024-01-15T09:44:43;94241.69;;;2.06;67.89
7834;BME280;3962;42.696;23.354;2024-01-15T09:47:12;94250.28;;;1.97;67.79
7834;BME280;3962;42.696;23.354;2024-01-15T09:49:39;94235.97;;;2.01;69.25
7834;BME280;3962;42.696;23.354;2024-01-15T09:52:10;94238.34;;;1.93;70.37
7834;BME280;3962;42.696;23.354;2024-01-15T09:54:38;94228.56;;;1.95;70.54
7834;BME280;3962;42.696;23.354;2024-01-15T09:57:06;94212.72;;;1.96;70.63
7834;BME280;3962;42.696;23.354;2024-01-15T09:59:34;94203.19;;;1.95;70.74
7834;BME280;3962;42.696;23.354;2024-01-15T10:02:03;94192.47;;;1.76;70.96
7834;BME280;3962;42.696;23.354;2024-01-15T10:04:31;94204.69;;;1.55;71.13
7834;BME280;3962;42.696;23.354;2024-01-15T10:07:00;94214.81;;;1.60;72.08
7834;BME280;3962;42.696;23.354;2024-01-15T10:09:29;94215.63;;;1.60;72.07
7834;BME280;3962;42.696;23.354;2024-01-15T10:11:57;94216.22;;;1.75;72.00
7834;BME280;3962;42.696;23.354;2024-01-15T10:14:25;94192.72;;;1.73;71.35
7834;BME280;3962;42.696;23.354;2024-01-15T10:16:52;94183.78;;;1.76;71.43
7834;BME280;3962;42.696;23.354;2024-01-15T10:19:21;94173.75;;;1.81;72.33
7834;BME280;3962;42.696;23.354;2024-01-15T10:21:49;94179.16;;;1.79;72.30
7834;BME280;3962;42.696;23.354;2024-01-15T10:24:17;94162.78;;;1.87;72.20
7834;BME280;3962;42.696;23.354;2024-01-15T10:26:45;94180.28;;;1.97;72.35
7834;BME280;3962;42.696;23.354;2024-01-15T10:29:15;94165.47;;;2.07;71.22
7834;BME280;3962;42.696;23.354;2024-01-15T10:31:42;94164.88;;;2.04;71.50
7834;BME280;3962;42.696;23.354;2024-01-15T10:34:12;94156.06;;;2.05;71.13
7834;BME280;3962;42.696;23.354;2024-01-15T10:36:41;94161.38;;;2.14;71.30
7834;BME280;3962;42.696;23.354;2024-01-15T10:39:08;94170.59;;;2.09;71.76
7834;BME280;3962;42.696;23.354;2024-01-15T10:41:38;94151.47;;;2.18;71.48
7834;BME280;3962;42.696;23.354;2024-01-15T10:44:07;94138.19;;;1.99;69.96
7834;BME280;3962;42.696;23.354;2024-01-15T10:46:35;94155.22;;;2.04;71.23
7834;BME280;3962;42.696;23.354;2024-01-15T10:49:02;94145.06;;;2.11;70.97
7834;BME280;3962;42.696;23.354;2024-01-15T10:51:30;94149.31;;;2.23;70.26
7834;BME280;3962;42.696;23.354;2024-01-15T10:53:57;94145.31;;;2.08;70.99
7834;BME280;3962;42.696;23.354;2024-01-15T10:56:27;94127.78;;;2.40;70.51
7834;BME280;3962;42.696;23.354;2024-01-15T10:58:55;94125.03;;;2.62;68.16
7834;BME280;3962;42.696;23.354;2024-01-15T11:01:25;94122.00;;;2.66;68.29
7834;BME280;3962;42.696;23.354;2024-01-15T11:03:54;94127.75;;;2.81;68.61
7834;BME280;3962;42.696;23.354;2024-01-15T11:06:24;94107.56;;;3.02;67.85
7834;BME280;3962;42.696;23.354;2024-01-15T11:08:52;94117.09;;;3.33;67.13
7834;BME280;3962;42.696;23.354;2024-01-15T11:11:21;94124.81;;;3.54;65.61
7834;BME280;3962;42.696;23.354;2024-01-15T11:13:49;94112.22;;;3.58;65.91
7834;BME280;3962;42.696;23.354;2024-01-15T11:16:18;94090.22;;;3.68;65.13
7834;BME280;3962;42.696;23.354;2024-01-15T11:19:04;94095.78;;;3.75;64.26
7834;BME280;3962;42.696;23.354;2024-01-15T11:21:42;94086.22;;;3.74;63.00
7834;BME280;3962;42.696;23.354;2024-01-15T11:24:10;94084.03;;;3.88;63.83
7834;BME280;3962;42.696;23.354;2024-01-15T11:26:43;94081.41;;;3.98;62.88
7834;BME280;3962;42.696;23.354;2024-01-15T11:29:30;94082.50;;;3.95;63.33
7834;BME280;3962;42.696;23.354;2024-01-15T11:31:59;94080.84;;;3.94;62.71
7834;BME280;3962;42.696;23.354;2024-01-15T11:34:51;94076.00;;;4.09;62.54
7834;BME280;3962;42.696;23.354;2024-01-15T11:37:19;94070.72;;;4.37;62.09
7834;BME280;3962;42.696;23.354;2024-01-15T11:39:52;94078.03;;;4.62;61.44
7834;BME280;3962;42.696;23.354;2024-01-15T11:42:24;94073.91;;;4.41;60.78
7834;BME280;3962;42.696;23.354;2024-01-15T11:44:52;94066.81;;;4.60;60.64
7834;BME280;3962;42.696;23.354;2024-01-15T11:47:41;94058.09;;;4.60;60.65
7834;BME280;3962;42.696;23.354;2024-01-15T11:50:15;94066.28;;;4.66;61.02
7834;BME280;3962;42.696;23.354;2024-01-15T11:52:55;94068.22;;;4.64;60.55
7834;BME280;3962;42.696;23.354;2024-01-15T11:55:35;94066.88;;;4.41;60.43
7834;BME280;3962;42.696;23.354;2024-01-15T11:58:08;94060.19;;;4.56;61.65
7834;BME280;3962;42.696;23.354;2024-01-15T12:00:39;94049.31;;;4.78;60.78
7834;BME280;3962;42.696;23.354;2024-01-15T12:03:08;94039.59;;;4.79;60.28
7834;BME280;3962;42.696;23.354;2024-01-15T12:05:39;94038.63;;;4.80;60.22
7834;BME280;3962;42.696;23.354;2024-01-15T12:08:07;94042.13;;;4.71;60.19
7834;BME280;3962;42.696;23.354;2024-01-15T12:10:36;94050.22;;;4.50;61.57
7834;BME280;3962;42.696;23.354;2024-01-15T12:13:09;94042.16;;;4.61;62.00
7834;BME280;3962;42.696;23.354;2024-01-15T12:15:37;94039.06;;;4.66;60.54
7834;BME280;3962;42.696;23.354;2024-01-15T12:18:08;94043.78;;;4.81;60.54
7834;BME280;3962;42.696;23.354;2024-01-15T12:20:36;94028.75;;;4.91;60.48
7834;BME280;3962;42.696;23.354;2024-01-15T12:23:05;94027.53;;;4.86;60.41
7834;BME280;3962;42.696;23.354;2024-01-15T12:25:33;94023.91;;;4.87;60.51
7834;BME280;3962;42.696;23.354;2024-01-15T12:28:03;94019.31;;;4.89;61.34
7834;BME280;3962;42.696;23.354;2024-01-15T12:30:32;94028.22;;;4.88;61.21
7834;BME280;3962;42.696;23.354;2024-01-15T12:33:01;94016.03;;;4.77;61.33
7834;BME280;3962;42.696;23.354;2024-01-15T12:35:33;94021.28;;;4.87;60.88
7834;BME280;3962;42.696;23.354;2024-01-15T12:38:01;94006.38;;;4.95;61.28
7834;BME280;3962;42.696;23.354;2024-01-15T12:40:31;94007.75;;;5.09;61.44
7834;BME280;3962;42.696;23.354;2024-01-15T12:42:59;94007.44;;;5.12;60.91
7834;BME280;3962;42.696;23.354;2024-01-15T12:45:26;94005.78;;;5.11;61.97
7834;BME280;3962;42.696;23.354;2024-01-15T12:47:53;94002.03;;;5.13;61.75
7834;BME280;3962;42.696;23.354;2024-01-15T12:50:25;94001.72;;;5.16;60.81
7834;BME280;3962;42.696;23.354;2024-01-15T12:52:52;93998.91;;;5.27;60.38
7834;BME280;3962;42.696;23.354;2024-01-15T12:55:19;93981.19;;;5.20;60.10
7834;BME280;3962;42.696;23.354;2024-01-15T12:57:49;93995.66;;;5.16;59.87
7834;BME280;3962;42.696;23.354;2024-01-15T13:00:19;93996.16;;;4.92;61.61
7834;BME280;3962;42.696;23.354;2024-01-15T13:02:47;93987.66;;;4.98;61.57
7834;BME280;3962;42.696;23.354;2024-01-15T13:05:16;93986.47;;;5.10;61.36
7834;BME280;3962;42.696;23.354;2024-01-15T13:07:43;93976.91;;;5.09;61.81
7834;BME280;3962;42.696;23.354;2024-01-15T13:10:10;93978.97;;;5.15;60.72
7834;BME280;3962;42.696;23.354;2024-01-15T13:12:38;93982.19;;;5.09;62.06
7834;BME280;3962;42.696;23.354;2024-01-15T13:15:08;93974.09;;;4.93;62.17
7834;BME280;3962;42.696;23.354;2024-01-15T13:17:37;93959.66;;;4.97;61.89
7834;BME280;3962;42.696;23.354;2024-01-15T13:20:06;93980.31;;;5.02;61.87